Time;durP1;ratioP1;P1;durP2;ratioP2;P2;SDS_P1;SDS_P2;PMS_P1;PMS_P2;Temp;Humidity;BMP_temperature;BMP_pressure;BME280_temperature;BME280_humidity;BME280_pressure;Samples;Min_cycle;Max_cycle;Signal;HPM_P1;HPM_P2
2023/03/05 00:00:41;;;;;;;9.17;4.07;;;-2.40;2.60;;;;;;6341214;22;20257;-91
2023/03/05 00:03:08;;;;;;;8.97;4.10;;;-2.40;29.50;;;;;;6341223;22;20165;-91
2023/03/05 00:05:34;;;;;;;9.80;4.10;;;-2.30;32.20;;;;;;6341078;22;20162;-91
2023/03/05 00:08:02;;;;;;;8.27;4.50;;;-2.30;10.40;;;;;;6341320;22;20221;-91
2023/03/05 00:10:28;;;;;;;9.13;4.57;;;-2.30;1.00;;;;;;6341054;22;20257;-91
2023/03/05 00:12:57;;;;;;;12.37;5.57;;;-2.30;1.00;;;;;;6340883;22;20277;-91
2023/03/05 00:15:23;;;;;;;15.30;9.20;;;-2.30;1.00;;;;;;6341529;22;20196;-92
2023/03/05 00:17:50;;;;;;;15.83;7.33;;;-2.30;1.00;;;;;;6340826;22;20165;-93
2023/03/05 00:20:17;;;;;;;15.77;8.60;;;-2.30;1.00;;;;;;6341431;22;20166;-92
2023/03/05 00:22:44;;;;;;;27.13;13.53;;;-2.20;15.90;;;;;;6341030;22;20221;-91
2023/03/05 00:25:11;;;;;;;23.57;11.50;;;-2.10;28.50;;;;;;6340710;22;20162;-92
2023/03/05 00:27:38;;;;;;;20.03;10.07;;;-2.00;28.20;;;;;;6340842;22;20173;-92
2023/03/05 00:30:08;;;;;;;18.50;10.13;;;-1.80;18.80;;;;;;6340555;22;20180;-92
2023/03/05 00:32:35;;;;;;;14.43;7.97;;;-1.70;6.00;;;;;;6340968;22;20203;-91
2023/03/05 00:35:02;;;;;;;10.80;5.97;;;-1.50;1.00;;;;;;6340659;22;20188;-92
2023/03/05 00:37:29;;;;;;;13.47;6.47;;;-1.40;1.00;;;;;;6341330;22;20253;-92
2023/03/05 00:39:55;;;;;;;13.43;6.77;;;-1.30;1.00;;;;;;6340769;22;20250;-91
2023/03/05 00:42:22;;;;;;;14.17;7.27;;;-1.10;1.00;;;;;;6341169;22;20166;-93
2023/03/05 00:44:49;;;;;;;15.87;6.60;;;-1.10;1.00;;;;;;6340744;22;20172;-92
2023/03/05 00:47:18;;;;;;;13.63;6.60;;;-0.90;1.00;;;;;;6340341;22;20245;-92
2023/03/05 00:49:45;;;;;;;14.73;6.90;;;-0.90;1.00;;;;;;6340728;22;20174;-92
2023/03/05 00:52:11;;;;;;;14.40;7.57;;;-0.80;1.00;;;;;;6340842;22;20176;-92
2023/03/05 00:54:38;;;;;;;14.80;6.90;;;-0.70;1.00;;;;;;6340962;22;20170;-92
2023/03/05 00:57:05;;;;;;;15.63;7.40;;;-0.70;1.00;;;;;;6340372;22;20185;-90
2023/03/05 00:59:32;;;;;;;13.20;7.00;;;-0.60;1.00;;;;;;6340457;22;20632;-92
2023/03/05 01:01:59;;;;;;;14.63;6.43;;;-0.50;1.00;;;;;;6340387;22;20162;-92
2023/03/05 01:04:27;;;;;;;12.30;5.87;;;-0.50;1.00;;;;;;6341221;22;20166;-91
2023/03/05 01:06:54;;;;;;;10.90;5.07;;;-0.50;1.00;;;;;;6340447;22;20158;-91
2023/03/05 01:09:23;;;;;;;10.77;4.50;;;-0.40;1.00;;;;;;6340447;22;20226;-91
2023/03/05 01:11:50;;;;;;;12.57;4.20;;;-0.30;1.00;;;;;;6340088;22;20221;-92
2023/03/05 01:14:17;;;;;;;10.77;4.33;;;-0.30;1.00;;;;;;6340452;22;20170;-92
2023/03/05 01:16:44;;;;;;;9.57;3.60;;;-0.30;1.00;;;;;;6340620;22;20196;-93
2023/03/05 01:19:12;;;;;;;8.67;3.27;;;-0.20;1.00;;;;;;6340502;22;20166;-92
2023/03/05 01:21:41;;;;;;;7.33;3.80;;;-0.10;1.00;;;;;;6340783;22;20166;-92
2023/03/05 01:24:08;;;;;;;8.00;3.60;;;-0.10;1.00;;;;;;6340653;22;20170;-92
2023/03/05 01:26:35;;;;;;;6.83;3.87;;;-0.10;1.00;;;;;;6339750;22;20172;-92
2023/03/05 01:29:02;;;;;;;8.07;3.77;;;-0.10;1.00;;;;;;6340284;22;20567;-93
2023/03/05 01:31:29;;;;;;;9.03;4.13;;;0.00;1.00;;;;;;6339565;22;20170;-92
2023/03/05 01:33:56;;;;;;;8.10;4.10;;;0.00;1.00;;;;;;6340088;22;20170;-92
2023/03/05 01:36:23;;;;;;;10.13;4.13;;;0.00;1.00;;;;;;6340196;22;20185;-91
2023/03/05 01:38:52;;;;;;;8.07;4.27;;;0.00;1.00;;;;;;6340727;22;20170;-93
2023/03/05 01:41:20;;;;;;;7.50;3.97;;;0.10;1.00;;;;;;6340508;22;20172;-92
2023/03/05 01:43:48;;;;;;;7.63;4.00;;;0.10;1.00;;;;;;6340474;22;20177;-92
2023/03/05 01:46:36;;;;;;;7.93;4.10;;;0.10;1.00;;;;;;6339862;22;20710;-93
2023/03/05 01:49:08;;;;;;;10.13;4.40;;;0.10;1.00;;;;;;6340417;22;20178;-92
2023/03/05 01:51:40;;;;;;;10.33;4.37;;;0.10;1.00;;;;;;6340226;22;20165;-91
2023/03/05 01:54:11;;;;;;;8.57;4.47;;;0.20;1.00;;;;;;6340041;22;20200;-92
2023/03/05 01:56:39;;;;;;;7.40;4.10;;;0.20;1.00;;;;;;6340087;22;20174;-92
2023/03/05 01:59:06;;;;;;;8.30;3.90;;;0.30;1.00;;;;;;6339606;22;20241;-92
2023/03/05 02:01:38;;;;;;;9.03;4.30;;;0.30;1.00;;;;;;6340370;22;20257;-93
2023/03/05 02:04:06;;;;;;;7.23;4.33;;;0.30;1.00;;;;;;6340302;22;20154;-93
2023/03/05 02:06:34;;;;;;;10.63;5.00;;;0.30;1.00;;;;;;6339807;22;20168;-92
2023/03/05 02:09:01;;;;;;;10.37;4.37;;;0.30;1.00;;;;;;6340101;22;20172;-93
2023/03/05 02:11:29;;;;;;;6.83;4.03;;;0.40;1.00;;;;;;6340051;22;20193;-92
2023/03/05 02:13:56;;;;;;;8.57;4.70;;;0.40;1.00;;;;;;6339858;22;20166;-92
2023/03/05 02:16:23;;;;;;;7.47;4.20;;;0.40;1.00;;;;;;6340139;22;20182;-90
2023/03/05 02:18:50;;;;;;;8.30;4.30;;;0.50;1.00;;;;;;6340131;22;20177;-92
2023/03/05 02:21:27;;;;;;;7.87;4.60;;;0.50;1.00;;;;;;6339012;22;20252;-92
2023/03/05 02:23:54;;;;;;;8.97;4.37;;;0.50;1.00;;;;;;6340350;22;20158;-92
2023/03/05 02:26:21;;;;;;;8.10;4.23;;;0.60;1.00;;;;;;6339797;22;20162;-89
2023/03/05 02:28:53;;;;;;;7.17;4.03;;;0.60;1.00;;;;;;6339866;22;20170;-92
2023/03/05 02:31:24;;;;;;;8.43;4.30;;;0.60;1.00;;;;;;6339881;22;20154;-92
2023/03/05 02:33:52;;;;;;;8.80;4.63;;;0.60;1.00;;;;;;6340481;22;20154;-93
2023/03/05 02:36:21;;;;;;;15.27;6.97;;;0.60;1.00;;;;;;6339587;22;20190;-91
2023/03/05 02:38:49;;;;;;;19.50;7.57;;;0.70;1.00;;;;;;6339289;22;20169;-90
2023/03/05 02:41:16;;;;;;;15.20;7.27;;;0.70;1.00;;;;;;6339442;22;20257;-91
2023/03/05 02:43:43;;;;;;;16.93;6.53;;;0.70;1.00;;;;;;6339536;22;20166;-91
2023/03/05 02:46:10;;;;;;;15.37;6.07;;;0.70;1.00;;;;;;6339567;22;20249;-91
2023/03/05 02:48:36;;;;;;;19.87;7.13;;;0.70;1.00;;;;;;6339309;22;20176;-90
2023/03/05 02:51:05;;;;;;;23.70;7.93;;;0.70;1.00;;;;;;6339270;22;20170;-90
2023/03/05 02:53:33;;;;;;;20.77;7.23;;;0.70;1.00;;;;;;6339657;22;20166;-90
2023/03/05 02:56:00;;;;;;;17.17;7.00;;;0.80;1.00;;;;;;6339693;22;20187;-91
2023/03/05 02:58:27;;;;;;;15.03;6.20;;;0.80;1.00;;;;;;6339440;22;20620;-91
2023/03/05 03:00:53;;;;;;;18.87;5.93;;;0.80;1.00;;;;;;6339672;22;20227;-92
2023/03/05 03:03:20;;;;;;;12.83;5.20;;;0.80;1.00;;;;;;6339520;22;20172;-91
2023/03/05 03:05:47;;;;;;;10.10;4.97;;;0.80;1.00;;;;;;6339171;22;20170;-91
2023/03/05 03:08:14;;;;;;;7.50;4.07;;;0.80;1.00;;;;;;6339664;22;20172;-92
2023/03/05 03:10:42;;;;;;;8.07;3.93;;;0.90;1.00;;;;;;6339614;22;20202;-91
2023/03/05 03:13:09;;;;;;;11.97;4.27;;;0.90;1.00;;;;;;6339152;22;20190;-92
2023/03/05 03:15:36;;;;;;;7.67;4.03;;;0.90;1.00;;;;;;6339598;22;20182;-92
2023/03/05 03:18:03;;;;;;;11.87;4.40;;;0.90;1.00;;;;;;6339639;22;20269;-90
2023/03/05 03:20:31;;;;;;;10.00;4.30;;;0.90;1.00;;;;;;6339745;22;20166;-91
2023/03/05 03:22:58;;;;;;;7.37;3.83;;;0.90;1.00;;;;;;6339843;22;20166;-92
2023/03/05 03:25:25;;;;;;;8.07;4.00;;;0.90;1.00;;;;;;6339773;22;20167;-91
2023/03/05 03:27:53;;;;;;;11.20;4.37;;;0.90;1.00;;;;;;6339221;22;20624;-92
2023/03/05 03:30:20;;;;;;;8.07;4.07;;;0.90;1.00;;;;;;6339559;22;20171;-92
2023/03/05 03:32:47;;;;;;;6.73;3.93;;;0.90;1.00;;;;;;6341214;22;20166;-91
2023/03/05 03:35:14;;;;;;;12.23;4.57;;;1.00;1.00;;;;;;6341292;22;20177;-91
2023/03/05 03:37:40;;;;;;;9.83;4.43;;;1.00;1.00;;;;;;6340983;22;20189;-91
2023/03/05 03:40:09;;;;;;;9.77;4.63;;;1.00;1.00;;;;;;6340926;22;20482;-92
2023/03/05 03:42:36;;;;;;;9.70;4.00;;;1.00;1.00;;;;;;6341083;22;20250;-91
2023/03/05 03:45:04;;;;;;;6.33;3.53;;;1.00;1.00;;;;;;6341137;22;20614;-92
2023/03/05 03:47:31;;;;;;;7.83;3.70;;;1.00;1.00;;;;;;6341151;22;20249;-92
2023/03/05 03:49:58;;;;;;;10.27;4.33;;;1.00;1.00;;;;;;6340612;22;20167;-91
2023/03/05 03:52:26;;;;;;;6.43;3.67;;;1.00;1.00;;;;;;6341226;22;20170;-91
2023/03/05 03:54:54;;;;;;;8.43;3.57;;;0.90;1.00;;;;;;6340857;22;20171;-92
2023/03/05 03:57:21;;;;;;;8.00;3.30;;;0.90;1.00;;;;;;6341039;22;20205;-91
2023/03/05 03:59:49;;;;;;;7.77;3.57;;;0.90;1.00;;;;;;6341055;22;20166;-92
2023/03/05 04:02:17;;;;;;;7.67;3.20;;;0.90;1.00;;;;;;6340552;22;20181;-92
2023/03/05 04:04:44;;;;;;;6.90;3.30;;;1.00;1.00;;;;;;6340664;22;20173;-91
2023/03/05 04:07:11;;;;;;;7.90;3.30;;;0.90;1.00;;;;;;6340215;22;20174;-91
2023/03/05 04:09:38;;;;;;;9.80;4.67;;;1.00;1.00;;;;;;6340013;22;20165;-91
2023/03/05 04:12:05;;;;;;;7.87;3.53;;;0.90;1.00;;;;;;6340981;22;20196;-91
2023/03/05 04:14:32;;;;;;;4.43;2.40;;;0.90;1.00;;;;;;6340734;22;20218;-91
2023/03/05 04:16:59;;;;;;;5.00;2.70;;;0.90;1.00;;;;;;6341304;22;20491;-92
2023/03/05 04:19:29;;;;;;;5.47;2.80;;;0.90;1.00;;;;;;6340579;22;20166;-90
2023/03/05 04:21:56;;;;;;;11.07;3.40;;;0.90;1.00;;;;;;6340374;22;20229;-90
2023/03/05 04:24:23;;;;;;;8.30;3.70;;;0.90;1.00;;;;;;6340145;22;20488;-91
2023/03/05 04:26:49;;;;;;;6.50;3.27;;;0.90;1.00;;;;;;6340273;22;20241;-90
2023/03/05 04:29:16;;;;;;;5.30;2.57;;;0.90;1.00;;;;;;6340451;22;20174;-92
2023/03/05 04:31:43;;;;;;;8.37;3.80;;;0.90;1.00;;;;;;6340602;22;20173;-91
2023/03/05 04:34:10;;;;;;;10.93;3.90;;;0.90;1.00;;;;;;6340418;22;20170;-91
2023/03/05 04:36:38;;;;;;;7.67;3.03;;;0.90;1.00;;;;;;6340583;22;20506;-91
2023/03/05 04:39:05;;;;;;;5.50;2.77;;;1.00;1.00;;;;;;6340578;22;20167;-92
2023/03/05 04:41:32;;;;;;;6.20;2.80;;;1.00;1.00;;;;;;6340734;22;20177;-92
2023/03/05 04:43:58;;;;;;;6.87;3.00;;;1.00;1.00;;;;;;6339792;22;20170;-92
2023/03/05 04:46:25;;;;;;;6.20;2.83;;;1.00;1.00;;;;;;6340422;22;20174;-92
2023/03/05 04:48:52;;;;;;;11.13;4.10;;;1.00;1.00;;;;;;6340575;22;20174;-92
2023/03/05 04:51:19;;;;;;;9.87;4.00;;;1.00;1.00;;;;;;6340601;22;20171;-92
2023/03/05 04:53:47;;;;;;;6.80;3.50;;;1.00;1.00;;;;;;6340398;22;20166;-91
2023/03/05 04:56:14;;;;;;;8.73;3.87;;;1.00;1.00;;;;;;6340258;22;20629;-91
2023/03/05 04:58:41;;;;;;;5.20;2.87;;;1.10;1.00;;;;;;6340639;22;20167;-91
2023/03/05 05:01:07;;;;;;;6.97;3.37;;;1.10;1.00;;;;;;6340470;22;20502;-91
2023/03/05 05:03:34;;;;;;;5.87;2.40;;;1.10;1.00;;;;;;6340151;22;20165;-90
2023/03/05 05:06:02;;;;;;;7.30;2.83;;;1.10;1.00;;;;;;6340736;22;20166;-91
2023/03/05 05:08:29;;;;;;;6.43;3.20;;;1.10;8.50;;;;;;6340656;22;20167;-91
2023/03/05 05:10:59;;;;;;;6.33;3.40;;;1.10;8.70;;;;;;6340716;22;20170;-92
2023/03/05 05:13:26;;;;;;;7.20;3.30;;;1.10;19.50;;;;;;6340077;22;20194;-92
2023/03/05 05:15:53;;;;;;;3.53;2.20;;;1.10;10.60;;;;;;6340545;22;20166;-91
2023/03/05 05:18:20;;;;;;;3.83;2.40;;;1.10;21.00;;;;;;6340504;22;20266;-92
2023/03/05 05:20:47;;;;;;;4.43;2.57;;;1.20;39.40;;;;;;6340180;22;20646;-93
2023/03/05 05:23:14;;;;;;;7.93;2.73;;;1.10;44.90;;;;;;6340653;22;20174;-92
2023/03/05 05:25:42;;;;;;;7.63;3.60;;;1.10;53.10;;;;;;6340472;22;20702;-93
2023/03/05 05:28:11;;;;;;;10.20;4.27;;;1.10;63.30;;;;;;6340006;22;20553;-92
2023/03/05 05:30:38;;;;;;;7.53;3.77;;;1.10;87.40;;;;;;6340503;22;20643;-93
2023/03/05 05:33:05;;;;;;;7.43;3.60;;;1.10;92.60;;;;;;6340603;22;20169;-92
2023/03/05 05:35:32;;;;;;;6.70;3.27;;;1.10;99.90;;;;;;6340438;22;20175;-93
2023/03/05 05:37:58;;;;;;;9.27;3.40;;;1.10;99.90;;;;;;6340224;22;20186;-92
2023/03/05 05:40:25;;;;;;;4.50;2.83;;;1.00;99.90;;;;;;6340485;22;20177;-93
2023/03/05 05:42:52;;;;;;;6.20;3.17;;;1.10;99.90;;;;;;6340797;22;20638;-92
2023/03/05 05:45:20;;;;;;;5.90;2.90;;;1.00;99.90;;;;;;6340169;22;20646;-93
2023/03/05 05:47:47;;;;;;;6.10;2.83;;;1.00;99.90;;;;;;6340404;22;20166;-92
2023/03/05 05:50:15;;;;;;;9.43;3.90;;;1.00;99.90;;;;;;6340084;22;20166;-92
2023/03/05 05:52:42;;;;;;;13.80;6.27;;;1.00;99.90;;;;;;6340054;22;20227;-92
2023/03/05 05:55:10;;;;;;;9.33;5.57;;;1.00;99.90;;;;;;6339928;22;20171;-92
2023/03/05 05:57:37;;;;;;;11.30;4.10;;;1.00;99.90;;;;;;6339336;22;20189;-93
2023/03/05 06:00:05;;;;;;;6.87;3.20;;;1.00;99.90;;;;;;6340161;22;20166;-92
2023/03/05 06:02:34;;;;;;;5.97;2.23;;;1.00;99.90;;;;;;6340307;22;20222;-93
2023/03/05 06:05:00;;;;;;;7.27;3.13;;;1.10;99.90;;;;;;6340003;22;20166;-92
2023/03/05 06:07:27;;;;;;;7.77;3.10;;;1.10;99.90;;;;;;6340040;22;20162;-93
2023/03/05 06:09:54;;;;;;;6.60;3.00;;;1.10;99.90;;;;;;6339830;22;20202;-93
2023/03/05 06:12:21;;;;;;;8.53;3.23;;;1.10;99.90;;;;;;6339827;22;20191;-92
2023/03/05 06:14:48;;;;;;;10.97;4.00;;;1.10;99.90;;;;;;6340137;22;20173;-92
2023/03/05 06:17:14;;;;;;;6.73;2.30;;;1.20;99.90;;;;;;6339780;22;20177;-93
2023/03/05 06:19:42;;;;;;;5.43;2.60;;;1.20;99.90;;;;;;6340255;22;20501;-92
2023/03/05 06:22:09;;;;;;;6.30;2.70;;;1.20;99.90;;;;;;6340162;22;20182;-91
2023/03/05 06:24:38;;;;;;;9.13;3.03;;;1.20;99.90;;;;;;6340118;22;20250;-93
2023/03/05 06:27:05;;;;;;;12.83;2.90;;;1.30;99.90;;;;;;6339776;22;20635;-93
2023/03/05 06:29:32;;;;;;;10.60;2.77;;;1.30;99.90;;;;;;6340645;22;20210;-93
2023/03/05 06:31:59;;;;;;;96.87;26.63;;;1.30;99.90;;;;;;6339896;22;20337;-92
2023/03/05 06:34:26;;;;;;;13.43;5.47;;;1.40;99.90;;;;;;6339807;22;20170;-92
2023/03/05 06:36:54;;;;;;;84.73;25.67;;;1.40;99.90;;;;;;6339882;22;20533;-92
2023/03/05 06:39:21;;;;;;;10.57;4.27;;;1.40;1.00;;;;;;6339530;22;20167;-93
2023/03/05 06:41:50;;;;;;;8.03;3.00;;;1.50;1.00;;;;;;6340013;22;20159;-93
2023/03/05 06:44:17;;;;;;;14.90;4.90;;;1.60;1.00;;;;;;6339376;22;20165;-92
2023/03/05 06:46:44;;;;;;;26.10;8.67;;;1.60;1.00;;;;;;6339348;22;20251;-90
2023/03/05 06:49:11;;;;;;;7.73;4.23;;;1.70;1.00;;;;;;6339088;22;20617;-90
2023/03/05 06:51:39;;;;;;;39.20;12.20;;;1.80;99.90;;;;;;6339406;22;20171;-90
2023/03/05 06:54:11;;;;;;;48.17;13.87;;;1.80;99.90;;;;;;6339589;22;20167;-91
2023/03/05 06:56:39;;;;;;;60.13;15.67;;;1.80;99.90;;;;;;6339475;22;20166;-90
2023/03/05 06:59:06;;;;;;;41.43;12.23;;;1.80;99.90;;;;;;6339394;22;20190;-91
2023/03/05 07:01:33;;;;;;;98.00;21.50;;;1.80;99.90;;;;;;6339465;22;20167;-90
2023/03/05 07:04:01;;;;;;;119.30;25.83;;;1.80;99.90;;;;;;6338895;22;20175;-91
2023/03/05 07:06:31;;;;;;;52.93;14.60;;;1.70;99.90;;;;;;6339963;22;20199;-91
2023/03/05 07:09:00;;;;;;;119.47;24.83;;;1.70;99.90;;;;;;6341293;22;20707;-91
2023/03/05 07:11:29;;;;;;;72.17;16.70;;;1.80;99.90;;;;;;6340908;22;20224;-90
2023/03/05 07:13:55;;;;;;;118.73;27.13;;;1.80;99.90;;;;;;6340518;22;20157;-91
2023/03/05 07:16:24;;;;;;;92.60;22.77;;;1.80;99.90;;;;;;6341505;22;20167;-90
2023/03/05 07:18:51;;;;;;;58.67;14.73;;;1.80;99.90;;;;;;6341117;22;20197;-90
2023/03/05 07:21:19;;;;;;;88.80;21.43;;;1.90;99.90;;;;;;6341252;22;20166;-90
2023/03/05 07:23:46;;;;;;;90.37;26.03;;;1.90;99.90;;;;;;6340892;22;20224;-90
2023/03/05 07:26:13;;;;;;;124.77;32.83;;;2.00;99.90;;;;;;6341107;22;20173;-90
2023/03/05 07:28:42;;;;;;;162.53;39.50;;;2.10;91.90;;;;;;6340723;22;20172;-90
2023/03/05 07:31:13;;;;;;;54.10;15.73;;;2.20;43.30;;;;;;6341215;22;20168;-90
2023/03/05 07:33:40;;;;;;;50.27;13.13;;;2.30;7.00;;;;;;6340857;22;20255;-91
2023/03/05 07:36:08;;;;;;;36.40;8.17;;;2.40;1.00;;;;;;6340596;22;20171;-90
2023/03/05 07:38:36;;;;;;;62.40;17.77;;;2.50;1.00;;;;;;6340955;22;20187;-91
2023/03/05 07:41:04;;;;;;;20.57;8.10;;;2.50;1.00;;;;;;6341163;22;20182;-92
2023/03/05 07:43:30;;;;;;;20.43;6.83;;;2.50;1.00;;;;;;6341078;22;20622;-91
2023/03/05 07:45:58;;;;;;;25.83;9.23;;;2.50;1.00;;;;;;6341280;22;20166;-91
2023/03/05 07:48:26;;;;;;;19.00;7.53;;;2.60;1.00;;;;;;6340666;22;20168;-91
2023/03/05 07:51:01;;;;;;;16.03;6.37;;;2.60;1.00;;;;;;6339967;22;20175;-89
2023/03/05 07:53:28;;;;;;;9.73;3.50;;;2.80;1.00;;;;;;6340927;22;20157;-89
2023/03/05 07:55:55;;;;;;;12.23;4.57;;;2.80;1.00;;;;;;6341150;22;20172;-92
2023/03/05 07:58:22;;;;;;;10.37;4.17;;;2.80;1.00;;;;;;6340682;22;20188;-92
2023/03/05 08:00:49;;;;;;;9.77;3.70;;;2.80;1.00;;;;;;6340373;22;20644;-91
2023/03/05 08:03:17;;;;;;;8.37;4.37;;;2.70;1.00;;;;;;6340813;22;20172;-91
2023/03/05 08:05:44;;;;;;;6.97;4.37;;;2.70;1.00;;;;;;6341188;22;20645;-93
2023/03/05 08:08:11;;;;;;;8.33;3.07;;;2.70;1.00;;;;;;6341272;22;20488;-94
2023/03/05 08:10:38;;;;;;;6.13;3.10;;;2.70;1.00;;;;;;6340877;22;20163;-95
2023/03/05 08:13:05;;;;;;;11.43;5.73;;;2.70;1.00;;;;;;6340390;22;20246;-92
2023/03/05 08:15:32;;;;;;;7.83;4.93;;;2.60;1.00;;;;;;6340888;22;20173;-95
2023/03/05 08:17:59;;;;;;;10.03;5.00;;;2.60;1.00;;;;;;6341190;22;20181;-92
2023/03/05 08:20:27;;;;;;;7.37;3.27;;;2.60;1.00;;;;;;6340951;22;20255;-93
2023/03/05 08:22:54;;;;;;;11.20;4.33;;;2.70;1.00;;;;;;6340931;22;20167;-92
2023/03/05 08:25:21;;;;;;;12.03;4.30;;;2.80;1.00;;;;;;6340607;22;20227;-91
2023/03/05 08:27:49;;;;;;;8.10;3.70;;;2.90;1.00;;;;;;6340812;22;20168;-96
2023/03/05 08:30:18;;;;;;;7.67;3.40;;;2.90;1.00;;;;;;6341196;22;20172;-94
2023/03/05 08:32:45;;;;;;;8.53;3.13;;;3.00;1.00;;;;;;6340911;22;20180;-94
2023/03/05 08:35:12;;;;;;;9.20;4.43;;;3.10;99.90;;;;;;6341219;22;20172;-94
2023/03/05 08:37:40;;;;;;;9.63;3.30;;;3.00;99.90;;;;;;6341184;22;20188;-94
2023/03/05 08:40:09;;;;;;;16.30;6.20;;;3.00;99.90;;;;;;6341068;22;20173;-94
2023/03/05 08:42:35;;;;;;;38.33;12.77;;;3.10;99.90;;;;;;6341043;22;20166;-93
2023/03/05 08:45:02;;;;;;;26.90;10.07;;;3.10;99.90;;;;;;6341047;22;20174;-94
2023/03/05 08:47:29;;;;;;;9.03;4.03;;;3.00;99.90;;;;;;6340606;22;20170;-94
2023/03/05 08:49:57;;;;;;;17.60;6.53;;;3.00;99.90;;;;;;6340549;22;20620;-94
2023/03/05 08:52:26;;;;;;;19.57;8.13;;;3.10;99.90;;;;;;6340967;22;20173;-94
2023/03/05 08:54:54;;;;;;;23.50;10.77;;;3.20;99.90;;;;;;6340744;22;20176;-94
2023/03/05 08:57:21;;;;;;;32.53;6.10;;;3.20;99.90;;;;;;6341038;22;20166;-93
2023/03/05 08:59:48;;;;;;;13.47;5.43;;;3.20;99.90;;;;;;6340689;22;20186;-93
2023/03/05 09:02:15;;;;;;;12.93;6.00;;;3.20;99.90;;;;;;6340354;22;20169;-95
2023/03/05 09:04:42;;;;;;;21.27;9.13;;;3.20;99.90;;;;;;6341224;22;20251;-94
2023/03/05 09:07:09;;;;;;;23.67;10.00;;;3.20;99.90;;;;;;6340312;22;20244;-93
2023/03/05 09:09:37;;;;;;;23.13;8.97;;;3.30;99.90;;;;;;6341038;22;20166;-93
2023/03/05 09:12:05;;;;;;;19.73;7.40;;;3.40;99.90;;;;;;6340429;22;20190;-93
2023/03/05 09:14:32;;;;;;;14.37;5.53;;;3.50;99.90;;;;;;6340656;22;20173;-92
2023/03/05 09:16:59;;;;;;;14.73;6.10;;;3.60;99.90;;;;;;6340942;22;20166;-91
2023/03/05 09:19:27;;;;;;;10.20;4.37;;;3.60;99.90;;;;;;6340482;22;20189;-91
2023/03/05 09:21:53;;;;;;;10.60;4.27;;;3.70;99.90;;;;;;6338844;22;20619;-93
2023/03/05 09:24:20;;;;;;;18.90;6.80;;;3.80;99.90;;;;;;6340516;22;20276;-92
2023/03/05 09:26:47;;;;;;;11.67;3.83;;;3.90;99.90;;;;;;6340063;22;20166;-92
2023/03/05 09:29:15;;;;;;;13.83;5.50;;;4.10;99.90;;;;;;6339985;22;20168;-92
2023/03/05 09:31:42;;;;;;;10.43;4.43;;;4.30;99.90;;;;;;6340539;22;20166;-92
2023/03/05 09:34:11;;;;;;;5.47;2.57;;;4.60;99.90;;;;;;6340044;22;20165;-92
2023/03/05 09:36:38;;;;;;;21.90;7.17;;;4.70;99.90;;;;;;6339940;22;20165;-91
2023/03/05 09:39:06;;;;;;;25.23;8.97;;;4.90;99.90;;;;;;6339849;22;20193;-92
2023/03/05 09:41:49;;;;;;;12.60;5.67;;;4.90;99.90;;;;;;6340636;22;20475;-92
2023/03/05 09:44:25;;;;;;;9.87;5.03;;;4.90;99.90;;;;;;6342117;22;20488;-92
2023/03/05 09:46:55;;;;;;;11.90;5.53;;;4.80;99.90;;;;;;6340697;22;20162;-91
2023/03/05 09:49:36;;;;;;;7.00;2.57;;;4.90;99.90;;;;;;6340554;22;20170;-91
2023/03/05 09:52:11;;;;;;;8.13;3.70;;;4.80;99.90;;;;;;6340724;22;20157;-91
2023/03/05 09:54:42;;;;;;;7.23;2.00;;;4.80;99.90;;;;;;6340080;22;20150;-90
2023/03/05 09:57:17;;;;;;;7.47;3.80;;;4.70;99.90;;;;;;6339637;22;20164;-90
2023/03/05 09:59:50;;;;;;;8.50;3.57;;;4.40;99.90;;;;;;6340060;22;20173;-91
2023/03/05 10:02:20;;;;;;;9.60;4.30;;;4.20;99.90;;;;;;6339846;22;20150;-91
2023/03/05 10:04:52;;;;;;;7.70;3.90;;;4.20;99.90;;;;;;6338805;22;20154;-91
2023/03/05 10:07:24;;;;;;;9.00;4.40;;;4.30;99.90;;;;;;6339145;22;20156;-92
2023/03/05 10:09:55;;;;;;;13.30;7.60;;;4.50;99.90;;;;;;6340395;22;20628;-90
2023/03/05 10:12:27;;;;;;;8.80;4.90;;;4.60;99.90;;;;;;6338996;22;20205;-90
2023/03/05 10:14:56;;;;;;;13.20;6.63;;;4.50;99.90;;;;;;6339450;22;20154;-91
2023/03/05 10:18:01;;;;;;;18.40;8.90;;;4.50;99.90;;;;;;6339686;22;20167;-92
2023/03/05 10:20:45;;;;;;;10.27;5.80;;;4.40;99.90;;;;;;6313574;22;20185;-92
2023/03/05 10:23:28;;;;;;;10.60;4.87;;;4.50;99.90;;;;;;6340250;22;20154;-92
2023/03/05 10:26:15;;;;;;;9.73;5.83;;;4.60;99.90;;;;;;6340183;22;20199;-93
2023/03/05 10:28:46;;;;;;;8.67;3.40;;;4.70;99.90;;;;;;6339293;22;20146;-94
2023/03/05 10:31:37;;;;;;;11.67;3.13;;;4.90;99.90;;;;;;6340165;22;20157;-91
2023/03/05 10:34:35;;;;;;;5.83;2.77;;;5.00;99.90;;;;;;6340473;22;20151;-90
2023/03/05 10:37:16;;;;;;;5.37;2.47;;;5.00;99.90;;;;;;6313532;22;20166;-91
2023/03/05 10:39:58;;;;;;;5.43;2.77;;;4.90;99.90;;;;;;6340240;22;20180;-93
2023/03/05 10:42:30;;;;;;;8.23;2.47;;;4.80;99.90;;;;;;6341795;22;20150;-92
2023/03/05 10:44:59;;;;;;;5.13;2.10;;;4.80;99.90;;;;;;6342330;22;20154;-92
2023/03/05 10:47:32;;;;;;;4.70;1.73;;;4.70;99.90;;;;;;6342029;22;20166;-92
2023/03/05 10:49:59;;;;;;;5.20;2.30;;;4.50;99.90;;;;;;6342184;22;20147;-93
2023/03/05 10:52:33;;;;;;;5.63;1.70;;;4.30;99.90;;;;;;6341881;22;20166;-94
2023/03/05 10:54:59;;;;;;;6.33;2.93;;;4.30;99.90;;;;;;6341934;22;20156;-92
2023/03/05 10:57:27;;;;;;;7.03;2.10;;;4.40;99.90;;;;;;6341634;22;20173;-93
2023/03/05 10:59:58;;;;;;;8.17;2.00;;;4.60;99.90;;;;;;6341809;22;20514;-93
2023/03/05 11:02:26;;;;;;;3.50;3.10;;;4.80;99.90;;;;;;6342055;22;20154;-95
2023/03/05 11:04:54;;;;;;;4.40;2.23;;;4.90;99.90;;;;;;6341956;22;20497;-93
2023/03/05 11:07:38;;;;;;;4.10;1.93;;;4.90;99.90;;;;;;6342113;22;20166;-92
2023/03/05 11:10:14;;;;;;;4.13;2.03;;;4.90;99.90;;;;;;6341733;22;20168;-92
2023/03/05 11:12:45;;;;;;;4.27;1.70;;;4.90;99.90;;;;;;6341567;22;20259;-92
2023/03/05 11:15:26;;;;;;;3.33;1.97;;;4.90;99.90;;;;;;6342967;22;20177;-93
2023/03/05 11:18:17;;;;;;;24.17;8.40;;;4.80;99.90;;;;;;6342044;22;20237;-92
2023/03/05 11:20:45;;;;;;;23.70;8.03;;;4.70;99.90;;;;;;6342248;22;20222;-95
2023/03/05 11:23:13;;;;;;;7.17;3.17;;;4.60;98.00;;;;;;6342100;22;20205;-93
2023/03/05 11:25:53;;;;;;;22.37;7.63;;;4.40;97.50;;;;;;6342128;22;20166;-91
2023/03/05 11:28:22;;;;;;;33.20;12.03;;;4.30;99.20;;;;;;6342004;22;20154;-93
2023/03/05 11:30:57;;;;;;;34.17;12.17;;;4.30;99.70;;;;;;6342096;22;20248;-92
2023/03/05 11:33:25;;;;;;;36.83;15.07;;;4.40;99.90;;;;;;6341861;22;20154;-94
2023/03/05 11:36:09;;;;;;;41.83;16.40;;;4.40;98.40;;;;;;6342166;22;20249;-93
2023/03/05 11:38:45;;;;;;;37.63;14.47;;;4.30;99.90;;;;;;6341833;22;20177;-93
2023/03/05 11:41:13;;;;;;;42.87;15.50;;;4.30;99.90;;;;;;6341837;22;20161;-93
2023/03/05 11:43:43;;;;;;;38.73;15.20;;;4.20;99.90;;;;;;6341714;22;20166;-92
2023/03/05 11:46:12;;;;;;;41.40;14.77;;;4.10;99.90;;;;;;6341431;22;20650;-91
2023/03/05 11:48:43;;;;;;;33.33;11.40;;;4.10;99.90;;;;;;6341489;22;20162;-89
2023/03/05 11:51:18;;;;;;;59.33;19.43;;;4.10;99.90;;;;;;6340487;22;20160;-89
2023/03/05 11:53:47;;;;;;;37.33;15.70;;;4.10;99.90;;;;;;6340616;22;20153;-90
2023/03/05 11:56:20;;;;;;;14.60;5.60;;;4.10;99.90;;;;;;6340395;22;20620;-90
2023/03/05 11:58:52;;;;;;;19.67;7.37;;;4.00;99.90;;;;;;6340627;22;20170;-89
2023/03/05 12:01:21;;;;;;;30.63;12.23;;;4.20;99.90;;;;;;6339283;22;20610;-88
2023/03/05 12:03:50;;;;;;;26.10;10.27;;;4.30;99.90;;;;;;6340276;22;20253;-89
2023/03/05 12:06:23;;;;;;;41.30;14.90;;;4.50;99.90;;;;;;6340066;22;20172;-87
2023/03/05 12:08:53;;;;;;;19.87;7.37;;;4.70;99.90;;;;;;6339911;22;20146;-88
2023/03/05 12:11:25;;;;;;;42.03;16.80;;;4.70;99.90;;;;;;6340489;22;20150;-88
2023/03/05 12:13:54;;;;;;;29.40;12.23;;;4.70;99.90;;;;;;6340507;22;20550;-92
2023/03/05 12:16:28;;;;;;;30.97;12.47;;;4.80;99.90;;;;;;6340880;22;20166;-89
2023/03/05 12:19:11;;;;;;;28.90;9.40;;;5.00;99.90;;;;;;6340363;22;20177;-89
2023/03/05 12:21:39;;;;;;;30.60;12.17;;;5.10;97.90;;;;;;6339940;22;20147;-90
2023/03/05 12:24:37;;;;;;;25.43;9.13;;;5.20;93.50;;;;;;6340508;22;20170;-93
2023/03/05 12:27:13;;;;;;;19.87;7.20;;;5.30;99.90;;;;;;6341033;22;20481;-94
2023/03/05 12:29:44;;;;;;;16.67;7.07;;;5.50;87.60;;;;;;6341100;22;20205;-91
2023/03/05 12:32:59;;;;;;;21.10;9.37;;;5.80;83.90;;;;;;6340900;22;20166;-93
2023/03/05 12:35:37;;;;;;;16.30;10.00;;;5.80;68.80;;;;;;6340761;22;20163;-92
2023/03/05 12:38:27;;;;;;;11.67;5.80;;;5.60;59.30;;;;;;6341053;22;20158;-91
2023/03/05 12:41:28;;;;;;;9.73;4.97;;;5.50;57.20;;;;;;6340645;22;20172;-91
2023/03/05 12:44:19;;;;;;;13.20;6.27;;;5.20;55.90;;;;;;6339829;22;20170;-89
2023/03/05 12:47:18;;;;;;;4.63;2.20;;;5.00;53.60;;;;;;6340358;22;20596;-91
2023/03/05 12:49:47;;;;;;;6.70;3.27;;;4.90;52.90;;;;;;6340719;22;20164;-90
2023/03/05 12:52:24;;;;;;;3.43;2.23;;;4.90;53.70;;;;;;6339984;22;20651;-91
2023/03/05 12:55:17;;;;;;;3.90;1.40;;;4.90;53.10;;;;;;6340430;22;20161;-91
2023/03/05 12:57:47;;;;;;;5.77;2.27;;;5.00;53.20;;;;;;6334910;22;20169;-90
2023/03/05 13:00:20;;;;;;;4.97;2.57;;;5.10;53.60;;;;;;6340505;22;20192;-91
2023/03/05 13:02:54;;;;;;;3.20;1.90;;;5.10;52.20;;;;;;6341035;22;20150;-91
2023/03/05 13:05:25;;;;;;;2.67;1.80;;;5.00;50.60;;;;;;6340532;22;20153;-91